Terminal Aerodrome Forecast
Issued by NWS Omaha/Valley, NE

Home | Current Version | Previous Version | Text Only | Print | Product List | Glossary Off
Versions: 1 2 3 4 5 6 7 8 9 10 11 12 13 14 15 16 17

000
FTUS43 KOAX 232320
TAFOFK
TAF
KOFK 232320Z 2400/2424 17010KT P6SM BKN050
      TEMPO 2400/2403 4SM TSRA BKN040CB
     FM240300 19006KT P6SM SCT250
     FM240900 33006KT P6SM FEW250
     FM241500 36010KT P6SM FEW200=

USA.gov is the U.S. government's official web portal to all federal, state and local government web resources and services.